AUA2929 LOWW-EGCC
Flight info
| Callsign | AUA2929 |
|---|---|
| Flight time | N/A |
| Altitude | 38000 |
| Route | BUWUT1D/34 BUWUT DCT DITIS DCT OKG DCT VELIS DCT SWALM DCT TIVUN DCT DIBIR DCT GALSO Q63 ERING L179 LAM UN57 WELIN T420 ELVOS ELVOS1M |
| Aircraft | A320/M-SDE3FGHIRWY/LB1 |
Departure
| Time | N/A |
|---|---|
| Airport | Vienna International Airport (LOWW) |
Arrival
| Time | 2026-05-01 13:42 |
|---|---|
| Airport | Manchester Airport (EGCC) |
| Time | Latitude | Longitude | Altitude | Speed | Heading |
|---|---|---|---|---|---|
| 2026-05-01 13:09 | 51.62180 | 0.85280 | 38200 ft | 430 kts | 270° |
| 2026-05-01 13:09 | 51.62535 | 0.75675 | 38199 ft | 430 kts | 270° |
| 2026-05-01 13:10 | 51.62887 | 0.66062 | 38197 ft | 430 kts | 270° |
| 2026-05-01 13:10 | 51.63226 | 0.56504 | 38196 ft | 430 kts | 270° |
| 2026-05-01 13:11 | 51.63563 | 0.46885 | 38191 ft | 430 kts | 270° |
| 2026-05-01 13:11 | 51.63896 | 0.37268 | 38184 ft | 430 kts | 270° |
| 2026-05-01 13:12 | 51.64211 | 0.27643 | 38170 ft | 430 kts | 270° |
| 2026-05-01 13:12 | 51.65142 | 0.18189 | 38165 ft | 435 kts | 286° |
| 2026-05-01 13:12 | 51.66367 | 0.13694 | 38161 ft | 439 kts | 297° |
| 2026-05-01 13:13 | 51.68078 | 0.09610 | 38160 ft | 442 kts | 308° |
| 2026-05-01 13:13 | 51.72369 | 0.02460 | 38154 ft | 444 kts | 312° |
| 2026-05-01 13:14 | 51.76707 | -0.04673 | 37598 ft | 449 kts | 312° |
| 2026-05-01 13:14 | 51.78893 | -0.08288 | 36900 ft | 449 kts | 311° |
| 2026-05-01 13:14 | 51.81066 | -0.11885 | 36228 ft | 445 kts | 311° |
| 2026-05-01 13:14 | 51.83220 | -0.15451 | 35552 ft | 442 kts | 311° |
| 2026-05-01 13:15 | 51.85335 | -0.18957 | 34921 ft | 438 kts | 311° |
| 2026-05-01 13:15 | 51.87460 | -0.22481 | 34437 ft | 435 kts | 311° |
| 2026-05-01 13:15 | 51.89572 | -0.25988 | 33947 ft | 432 kts | 311° |
| 2026-05-01 13:15 | 51.91663 | -0.29467 | 33433 ft | 429 kts | 311° |
| 2026-05-01 13:16 | 51.93737 | -0.32925 | 32925 ft | 426 kts | 310° |
| 2026-05-01 13:16 | 51.95787 | -0.36350 | 32437 ft | 423 kts | 310° |
| 2026-05-01 13:16 | 51.97831 | -0.39769 | 31957 ft | 419 kts | 310° |
| 2026-05-01 13:17 | 52.03861 | -0.49877 | 30597 ft | 411 kts | 310° |
| 2026-05-01 13:17 | 52.05841 | -0.53207 | 30144 ft | 408 kts | 310° |
| 2026-05-01 13:18 | 52.09731 | -0.59778 | 29171 ft | 402 kts | 310° |
| 2026-05-01 13:18 | 52.11667 | -0.63049 | 28700 ft | 399 kts | 310° |
| 2026-05-01 13:18 | 52.13537 | -0.66209 | 28254 ft | 397 kts | 310° |
| 2026-05-01 13:18 | 52.15446 | -0.69439 | 27797 ft | 394 kts | 310° |
| 2026-05-01 13:19 | 52.17341 | -0.72646 | 27339 ft | 392 kts | 310° |
| 2026-05-01 13:19 | 52.19223 | -0.75842 | 26889 ft | 389 kts | 310° |
| 2026-05-01 13:19 | 52.22959 | -0.82208 | 26008 ft | 386 kts | 310° |
| 2026-05-01 13:20 | 52.24897 | -0.85156 | 25590 ft | 387 kts | 319° |
| 2026-05-01 13:20 | 52.27143 | -0.87622 | 25176 ft | 388 kts | 326° |
| 2026-05-01 13:20 | 52.29447 | -0.89894 | 24770 ft | 386 kts | 326° |
| 2026-05-01 13:21 | 52.34021 | -0.94433 | 23973 ft | 382 kts | 325° |
| 2026-05-01 13:21 | 52.36286 | -0.96692 | 23565 ft | 381 kts | 325° |
| 2026-05-01 13:21 | 52.38540 | -0.98947 | 23100 ft | 379 kts | 325° |
| 2026-05-01 13:21 | 52.40778 | -1.01191 | 22676 ft | 375 kts | 325° |
| 2026-05-01 13:22 | 52.42995 | -1.03416 | 22257 ft | 373 kts | 325° |
| 2026-05-01 13:22 | 52.45201 | -1.05631 | 21838 ft | 370 kts | 325° |
| 2026-05-01 13:22 | 52.47393 | -1.07829 | 21431 ft | 368 kts | 325° |
| 2026-05-01 13:22 | 52.49569 | -1.10011 | 21036 ft | 366 kts | 325° |
| 2026-05-01 13:23 | 52.51739 | -1.12191 | 20630 ft | 364 kts | 325° |
| 2026-05-01 13:23 | 52.53868 | -1.14337 | 20252 ft | 362 kts | 325° |
| 2026-05-01 13:23 | 52.56031 | -1.16521 | 19865 ft | 360 kts | 325° |
| 2026-05-01 13:23 | 52.58164 | -1.18669 | 19497 ft | 358 kts | 326° |
| 2026-05-01 13:24 | 52.60260 | -1.20779 | 19138 ft | 356 kts | 326° |
| 2026-05-01 13:24 | 52.62269 | -1.22807 | 18803 ft | 355 kts | 326° |
| 2026-05-01 13:24 | 52.64370 | -1.24937 | 18439 ft | 353 kts | 326° |
| 2026-05-01 13:25 | 52.68527 | -1.29162 | 17677 ft | 349 kts | 325° |
| 2026-05-01 13:25 | 52.70588 | -1.31254 | 17320 ft | 347 kts | 326° |
| 2026-05-01 13:25 | 52.72638 | -1.33336 | 16960 ft | 345 kts | 326° |
| 2026-05-01 13:25 | 52.74675 | -1.35405 | 16573 ft | 343 kts | 326° |
| 2026-05-01 13:26 | 52.76699 | -1.37465 | 16227 ft | 341 kts | 325° |
| 2026-05-01 13:26 | 52.78717 | -1.39527 | 15904 ft | 339 kts | 325° |
| 2026-05-01 13:26 | 52.80715 | -1.41572 | 15543 ft | 337 kts | 325° |
| 2026-05-01 13:26 | 52.82706 | -1.43612 | 15211 ft | 336 kts | 325° |
| 2026-05-01 13:27 | 52.84686 | -1.45640 | 14872 ft | 334 kts | 325° |
| 2026-05-01 13:27 | 52.86663 | -1.47661 | 14558 ft | 333 kts | 326° |
| 2026-05-01 13:27 | 52.90576 | -1.51679 | 13911 ft | 329 kts | 325° |
| 2026-05-01 13:28 | 52.94447 | -1.55672 | 13223 ft | 326 kts | 325° |
| 2026-05-01 13:28 | 52.96367 | -1.57653 | 12886 ft | 324 kts | 326° |
| 2026-05-01 13:29 | 53.00145 | -1.61555 | 12237 ft | 320 kts | 326° |
| 2026-05-01 13:29 | 53.03900 | -1.65440 | 11593 ft | 316 kts | 326° |
| 2026-05-01 13:30 | 53.09857 | -1.75609 | 10290 ft | 304 kts | 307° |
| 2026-05-01 13:31 | 53.13296 | -1.79458 | 9588 ft | 306 kts | 349° |
| 2026-05-01 13:31 | 53.19356 | -1.77185 | 8441 ft | 302 kts | 20° |
| 2026-05-01 13:32 | 53.23444 | -1.76590 | 8141 ft | 299 kts | 351° |
| 2026-05-01 13:33 | 53.29609 | -1.78083 | 8145 ft | 290 kts | 350° |
| 2026-05-01 13:33 | 53.33159 | -1.80293 | 8150 ft | 265 kts | 331° |
| 2026-05-01 13:34 | 53.36444 | -1.83053 | 7993 ft | 262 kts | 330° |
| 2026-05-01 13:34 | 53.39694 | -1.85813 | 7420 ft | 261 kts | 330° |
| 2026-05-01 13:35 | 53.42852 | -1.88506 | 7030 ft | 243 kts | 330° |
| 2026-05-01 13:35 | 53.44305 | -1.89725 | 6958 ft | 224 kts | 330° |
| 2026-05-01 13:35 | 53.46987 | -1.91935 | 6365 ft | 211 kts | 330° |
| 2026-05-01 13:36 | 53.48267 | -1.93077 | 5915 ft | 207 kts | 318° |
| 2026-05-01 13:36 | 53.49038 | -1.94966 | 5512 ft | 192 kts | 278° |
| 2026-05-01 13:36 | 53.48733 | -1.99206 | 4768 ft | 183 kts | 247° |
| 2026-05-01 13:37 | 53.48114 | -2.01024 | 4351 ft | 181 kts | 229° |
| 2026-05-01 13:37 | 53.47298 | -2.02698 | 3877 ft | 189 kts | 228° |
| 2026-05-01 13:37 | 53.46512 | -2.04316 | 3572 ft | 185 kts | 229° |
| 2026-05-01 13:37 | 53.45717 | -2.05978 | 3286 ft | 178 kts | 229° |
| 2026-05-01 13:38 | 53.44168 | -2.09210 | 2808 ft | 177 kts | 229° |
| 2026-05-01 13:38 | 53.43398 | -2.10817 | 2560 ft | 177 kts | 228° |
| 2026-05-01 13:38 | 53.42632 | -2.12412 | 2354 ft | 172 kts | 228° |
| 2026-05-01 13:39 | 53.41907 | -2.13925 | 2129 ft | 163 kts | 229° |
| 2026-05-01 13:39 | 53.41220 | -2.15357 | 1903 ft | 158 kts | 229° |
| 2026-05-01 13:39 | 53.40534 | -2.16782 | 1690 ft | 156 kts | 230° |
| 2026-05-01 13:39 | 53.39851 | -2.18204 | 1475 ft | 155 kts | 229° |
| 2026-05-01 13:40 | 53.39187 | -2.19583 | 1260 ft | 146 kts | 229° |
| 2026-05-01 13:40 | 53.38568 | -2.20870 | 1072 ft | 140 kts | 230° |
| 2026-05-01 13:40 | 53.37965 | -2.22121 | 889 ft | 135 kts | 231° |
| 2026-05-01 13:40 | 53.37378 | -2.23332 | 667 ft | 132 kts | 232° |
| 2026-05-01 13:41 | 53.36805 | -2.24531 | 511 ft | 133 kts | 232° |
| 2026-05-01 13:41 | 53.36234 | -2.25720 | 318 ft | 129 kts | 232° |
| 2026-05-01 13:41 | 53.35681 | -2.26883 | 254 ft | 120 kts | 233° |
| 2026-05-01 13:41 | 53.35236 | -2.27801 | 236 ft | 77 kts | 229° |
| 2026-05-01 13:42 | 53.35013 | -2.28263 | 230 ft | 33 kts | 244° |
| 2026-05-01 13:42 | 53.34952 | -2.28557 | 226 ft | 21 kts | 259° |
| 2026-05-01 13:42 | 53.34943 | -2.28691 | 225 ft | 0 kts | 279° |
| 2026-05-01 13:43 | 53.34952 | -2.28719 | 227 ft | 10 kts | 310° |
| 2026-05-01 13:43 | 53.35029 | -2.28715 | 227 ft | 12 kts | 45° |
| 2026-05-01 13:43 | 53.35079 | -2.28617 | 227 ft | 10 kts | 51° |
| 2026-05-01 13:44 | 53.35119 | -2.28533 | 228 ft | 8 kts | 51° |
| 2026-05-01 13:44 | 53.35152 | -2.28465 | 229 ft | 7 kts | 51° |
| 2026-05-01 13:44 | 53.35177 | -2.28412 | 230 ft | 7 kts | 51° |
| 2026-05-01 13:44 | 53.35247 | -2.28278 | 231 ft | 17 kts | 43° |
| 2026-05-01 13:45 | 53.35343 | -2.28185 | 235 ft | 15 kts | 20° |
| 2026-05-01 13:45 | 53.35437 | -2.28154 | 236 ft | 13 kts | 10° |
| 2026-05-01 13:45 | 53.35513 | -2.28105 | 240 ft | 11 kts | 32° |
| 2026-05-01 13:45 | 53.35563 | -2.28028 | 237 ft | 9 kts | 50° |
| 2026-05-01 13:46 | 53.35569 | -2.28015 | 237 ft | 0 kts | 50° |
| 2026-05-01 13:47 | 53.35592 | -2.27967 | 237 ft | 9 kts | 51° |
| 2026-05-01 13:48 | 53.35632 | -2.27901 | 238 ft | 7 kts | 29° |
| 2026-05-01 13:48 | 53.35693 | -2.27884 | 239 ft | 16 kts | 6° |
| 2026-05-01 13:48 | 53.35774 | -2.27870 | 240 ft | 0 kts | 6° |
| 2026-05-01 13:48 | 53.35775 | -2.27870 | 240 ft | 1 kts | 4° |
| 2026-05-01 13:49 | 53.35777 | -2.27869 | 240 ft | 0 kts | 6° |
| 2026-05-01 13:55 | 53.35819 | -2.27862 | 240 ft | 10 kts | 6° |
| 2026-05-01 13:55 | 53.35894 | -2.27850 | 241 ft | 11 kts | 5° |
| 2026-05-01 13:56 | 53.35965 | -2.27837 | 241 ft | 10 kts | 6° |
| 2026-05-01 13:56 | 53.36060 | -2.27849 | 242 ft | 15 kts | 334° |
| 2026-05-01 13:56 | 53.36143 | -2.27977 | 242 ft | 16 kts | 315° |
| 2026-05-01 13:56 | 53.36222 | -2.28110 | 241 ft | 17 kts | 316° |
| 2026-05-01 13:57 | 53.36295 | -2.28234 | 241 ft | 14 kts | 314° |
| 2026-05-01 13:57 | 53.36369 | -2.28358 | 241 ft | 17 kts | 315° |
| 2026-05-01 13:57 | 53.36442 | -2.28483 | 241 ft | 14 kts | 314° |
| 2026-05-01 13:57 | 53.36509 | -2.28593 | 241 ft | 14 kts | 315° |
| 2026-05-01 13:58 | 53.36568 | -2.28706 | 240 ft | 13 kts | 292° |
| 2026-05-01 13:58 | 53.36630 | -2.28768 | 241 ft | 10 kts | 22° |
| 2026-05-01 13:58 | 53.36676 | -2.28722 | 241 ft | 6 kts | 4° |
| 2026-05-01 13:58 | 53.36704 | -2.28746 | 241 ft | 3 kts | 317° |
| 2026-05-01 13:59 | 53.36718 | -2.28771 | 241 ft | 3 kts | 314° |
| 2026-05-01 13:59 | 53.36730 | -2.28791 | 241 ft | 2 kts | 314° |
| 2026-05-01 13:59 | 53.36739 | -2.28807 | 241 ft | 2 kts | 315° |
| 2026-05-01 13:59 | 53.36740 | -2.28809 | 241 ft | 0 kts | 315° |